createdAt,value
2023-08-08T00:01:01.563Z,100559.28
2023-08-08T00:03:30.314Z,100549.78
2023-08-08T00:05:58.892Z,100552.88
2023-08-08T00:08:27.449Z,100546.25
2023-08-08T00:11:11.501Z,100550.78
2023-08-08T00:13:40.456Z,100540.59
2023-08-08T00:16:09.305Z,100543.84
2023-08-08T00:18:38.016Z,100536.56
2023-08-08T00:21:06.617Z,100549.03
2023-08-08T00:23:35.132Z,100546.09
2023-08-08T00:26:03.735Z,100537.56
2023-08-08T00:28:33.629Z,100537.22
2023-08-08T00:31:02.563Z,100540.94
2023-08-08T00:33:33.295Z,100533.19
2023-08-08T00:36:01.807Z,100535.47
2023-08-08T00:38:34.544Z,100533.34
2023-08-08T00:41:05.837Z,100529.78
2023-08-08T00:43:51.247Z,100529.94
2023-08-08T00:46:23.414Z,100541.59
2023-08-08T00:48:52.586Z,100530.44
2023-08-08T00:51:23.330Z,100528.00
2023-08-08T00:53:52.147Z,100535.97
2023-08-08T00:56:21.393Z,100533.84
2023-08-08T00:58:51.949Z,100534.66
2023-08-08T01:01:21.253Z,100526.72
2023-08-08T01:03:50.819Z,100525.91
2023-08-08T01:06:26.045Z,100517.84
2023-08-08T01:09:00.399Z,100521.72
2023-08-08T01:11:31.924Z,100529.47
2023-08-08T01:14:03.095Z,100536.75
2023-08-08T01:16:32.308Z,100528.50
2023-08-08T01:19:01.212Z,100522.03
2023-08-08T01:21:31.745Z,100523.31
2023-08-08T01:24:16.029Z,100522.84
2023-08-08T01:26:44.948Z,100521.22
2023-08-08T01:29:13.446Z,100524.75
2023-08-08T01:31:42.118Z,100516.31
2023-08-08T01:34:10.798Z,100519.06
2023-08-08T01:36:47.154Z,100522.66
2023-08-08T01:39:22.125Z,100516.00
2023-08-08T01:41:52.350Z,100517.47
2023-08-08T01:44:21.794Z,100509.84
2023-08-08T01:46:50.335Z,100506.25
2023-08-08T01:49:18.837Z,100506.66
2023-08-08T01:51:47.566Z,100504.44
2023-08-08T01:54:17.567Z,100505.03
2023-08-08T01:56:46.029Z,100499.19
2023-08-08T01:59:16.023Z,100502.44
2023-08-08T02:01:44.881Z,100502.59
2023-08-08T02:04:13.378Z,100501.78
2023-08-08T02:06:41.945Z,100502.50
2023-08-08T02:09:10.437Z,100491.88
2023-08-08T02:11:40.415Z,100490.63
2023-08-08T02:14:09.420Z,100492.22
2023-08-08T02:16:37.958Z,100493.47
2023-08-08T02:19:06.590Z,100496.38
2023-08-08T02:21:35.246Z,100491.50
2023-08-08T02:24:04.038Z,100494.13
2023-08-08T02:26:32.785Z,100489.59
2023-08-08T02:29:02.665Z,100507.44
2023-08-08T02:31:31.296Z,100491.75
2023-08-08T02:33:59.870Z,100495.16
2023-08-08T02:36:28.382Z,100491.41
2023-08-08T02:38:56.892Z,100481.56
2023-08-08T02:41:25.371Z,100485.47
2023-08-08T02:43:54.018Z,100482.56
2023-08-08T02:46:23.900Z,100488.88
2023-08-08T02:48:52.514Z,100481.75
2023-08-08T02:51:32.658Z,100486.44
2023-08-08T02:54:01.197Z,100483.03
2023-08-08T02:56:29.606Z,100468.81
2023-08-08T02:58:59.238Z,100461.72
2023-08-08T03:01:29.124Z,100468.03
2023-08-08T03:03:57.728Z,100469.81
2023-08-08T03:06:26.340Z,100459.94
2023-08-08T03:08:54.833Z,100464.63
2023-08-08T03:11:23.402Z,100457.16
2023-08-08T03:13:51.896Z,100451.78
2023-08-08T03:16:20.605Z,100449.75
2023-08-08T03:18:50.424Z,100449.34
2023-08-08T03:21:18.926Z,100446.38
2023-08-08T03:24:11.464Z,100456.03
2023-08-08T03:26:40.122Z,100459.16
2023-08-08T03:29:11.133Z,100459.34
2023-08-08T03:31:39.910Z,100455.13
2023-08-08T03:34:09.851Z,100457.66
2023-08-08T03:36:39.920Z,100445.63
2023-08-08T03:39:12.401Z,100449.47
2023-08-08T03:41:40.922Z,100450.78
2023-08-08T03:44:09.386Z,100438.00
2023-08-08T03:46:37.951Z,100445.75
2023-08-08T03:49:06.538Z,100437.88
2023-08-08T03:51:36.420Z,100434.16
2023-08-08T03:54:20.554Z,100423.69
2023-08-08T03:56:49.132Z,100440.44
2023-08-08T03:59:25.695Z,100451.22
2023-08-08T04:01:54.282Z,100456.47
2023-08-08T04:04:22.771Z,100460.81
2023-08-08T04:06:52.592Z,100457.69
2023-08-08T04:09:21.076Z,100466.00
2023-08-08T04:11:49.796Z,100460.81
2023-08-08T04:14:18.416Z,100462.94
2023-08-08T04:16:46.978Z,100463.31
2023-08-08T04:19:15.454Z,100458.00
2023-08-08T04:21:43.978Z,100455.09
2023-08-08T04:24:14.057Z,100454.94
2023-08-08T04:26:42.754Z,100454.78
2023-08-08T04:29:11.244Z,100457.03
2023-08-08T04:31:39.802Z,100455.56
2023-08-08T04:34:08.266Z,100450.25
2023-08-08T04:36:51.051Z,100457.06
2023-08-08T04:39:21.069Z,100443.84
2023-08-08T04:41:49.591Z,100452.94
2023-08-08T04:44:18.034Z,100448.69
2023-08-08T04:46:46.512Z,100451.81
2023-08-08T04:49:29.944Z,100449.19
2023-08-08T04:51:58.788Z,100457.16
2023-08-08T04:54:28.865Z,100450.19
2023-08-08T04:56:57.522Z,100435.22
2023-08-08T04:59:26.185Z,100430.53
2023-08-08T05:01:54.658Z,100424.72
2023-08-08T05:04:23.320Z,100430.22
2023-08-08T05:06:53.082Z,100435.53
2023-08-08T05:09:21.826Z,100438.94
2023-08-08T05:11:52.022Z,100434.59
2023-08-08T05:14:21.885Z,100441.22
2023-08-08T05:16:50.481Z,100445.41
2023-08-08T05:19:19.030Z,100443.50
2023-08-08T05:21:47.963Z,100435.78
2023-08-08T05:24:17.140Z,100448.53
2023-08-08T05:26:45.788Z,100460.69
2023-08-08T05:29:15.625Z,100450.66
2023-08-08T05:31:44.181Z,100447.28
2023-08-08T05:34:12.799Z,100440.53
2023-08-08T05:36:41.332Z,100441.03
2023-08-08T05:39:10.726Z,100445.25
2023-08-08T05:41:39.197Z,100452.69
2023-08-08T05:44:07.716Z,100442.53
2023-08-08T05:46:39.797Z,100446.72
2023-08-08T05:49:09.195Z,100457.06
2023-08-08T05:51:37.771Z,100445.31
2023-08-08T05:54:06.920Z,100443.69
2023-08-08T05:56:38.686Z,100436.44
2023-08-08T05:59:07.520Z,100436.28
2023-08-08T06:01:37.286Z,100431.28
2023-08-08T06:04:29.170Z,100436.97
2023-08-08T06:06:57.810Z,100441.81
2023-08-08T06:09:26.986Z,100450.22
2023-08-08T06:11:55.570Z,100445.06
2023-08-08T06:14:24.245Z,100451.03
2023-08-08T06:16:52.738Z,100455.22
2023-08-08T06:19:21.301Z,100446.66
2023-08-08T06:21:51.388Z,100458.63
2023-08-08T06:24:19.939Z,100462.84
2023-08-08T06:26:48.505Z,100466.72
2023-08-08T06:29:18.448Z,100455.72
2023-08-08T06:31:51.763Z,100455.25
2023-08-08T06:34:20.468Z,100456.72
2023-08-08T06:36:49.190Z,100461.03
2023-08-08T06:39:20.545Z,100457.97
2023-08-08T06:41:49.326Z,100462.34
2023-08-08T06:44:17.897Z,100466.41
2023-08-08T06:46:46.412Z,100467.66
2023-08-08T06:49:15.240Z,100468.59
2023-08-08T06:52:03.831Z,100457.88
2023-08-08T06:54:33.983Z,100475.53
2023-08-08T06:57:03.166Z,100469.38
2023-08-08T06:59:32.094Z,100464.38
2023-08-08T07:02:00.655Z,100459.66
2023-08-08T07:04:29.188Z,100447.03
2023-08-08T07:06:57.812Z,100453.19
2023-08-08T07:09:26.705Z,100447.53
2023-08-08T07:11:56.657Z,100451.06
2023-08-08T07:14:25.259Z,100447.09
2023-08-08T07:16:54.517Z,100454.78
2023-08-08T07:19:23.144Z,100456.13
2023-08-08T07:21:51.645Z,100448.97
2023-08-08T07:24:21.396Z,100449.75
2023-08-08T07:26:49.855Z,100455.25
2023-08-08T07:29:19.966Z,100452.28
2023-08-08T07:31:48.525Z,100442.88
2023-08-08T07:34:17.352Z,100437.47
2023-08-08T07:36:46.555Z,100440.38
2023-08-08T07:39:15.995Z,100437.25
2023-08-08T07:41:44.518Z,100427.81
2023-08-08T07:44:13.040Z,100424.09
2023-08-08T07:46:43.420Z,100434.22
2023-08-08T07:49:11.989Z,100434.56
2023-08-08T07:51:40.617Z,100426.94
2023-08-08T07:54:09.742Z,100430.66
2023-08-08T07:56:38.600Z,100420.81
2023-08-08T07:59:07.415Z,100430.13
2023-08-08T08:01:36.524Z,100423.06
2023-08-08T08:04:06.532Z,100405.66
2023-08-08T08:06:35.185Z,100417.38
2023-08-08T08:09:04.501Z,100416.81
2023-08-08T08:11:33.367Z,100415.53
2023-08-08T08:14:01.974Z,100415.19
2023-08-08T08:16:30.688Z,100409.66
2023-08-08T08:18:59.690Z,100419.56
2023-08-08T08:21:29.656Z,100413.72
2023-08-08T08:23:58.130Z,100412.81
2023-08-08T08:26:37.573Z,100411.41
2023-08-08T08:29:06.414Z,100417.28
2023-08-08T08:31:35.026Z,100419.44
2023-08-08T08:34:03.682Z,100417.97
2023-08-08T08:36:33.708Z,100417.19
2023-08-08T08:39:02.307Z,100425.50
2023-08-08T08:41:34.599Z,100418.22
2023-08-08T08:44:03.472Z,100407.84
2023-08-08T08:46:32.599Z,100412.91
2023-08-08T08:49:01.840Z,100405.94
2023-08-08T08:51:30.982Z,100414.56
2023-08-08T08:54:01.111Z,100414.25
2023-08-08T08:56:29.776Z,100404.13
2023-08-08T08:58:58.626Z,100403.38
2023-08-08T09:01:28.370Z,100397.47
2023-08-08T09:03:57.216Z,100412.91
2023-08-08T09:06:26.595Z,100410.53
2023-08-08T09:09:03.122Z,100406.50
2023-08-08T09:11:37.464Z,100404.75
2023-08-08T09:14:06.117Z,100413.53
2023-08-08T09:16:34.803Z,100412.38
2023-08-08T09:19:04.493Z,100409.44
2023-08-08T09:21:33.177Z,100408.97
2023-08-08T09:24:01.832Z,100410.41
2023-08-08T09:26:30.530Z,100404.97
2023-08-08T09:29:16.306Z,100405.00
2023-08-08T09:31:45.290Z,100406.53
2023-08-08T09:34:13.859Z,100396.03
2023-08-08T09:36:42.721Z,100400.91
2023-08-08T09:39:11.636Z,100391.25
2023-08-08T09:41:41.040Z,100396.63
2023-08-08T09:44:10.459Z,100406.59
2023-08-08T09:46:41.268Z,100400.84
2023-08-08T09:49:12.367Z,100387.50
2023-08-08T09:51:41.421Z,100391.47
2023-08-08T09:54:10.888Z,100386.56
2023-08-08T09:56:41.457Z,100412.72
2023-08-08T09:59:12.311Z,100405.44
2023-08-08T10:01:43.728Z,100403.41
2023-08-08T10:04:14.314Z,100415.75
2023-08-08T10:06:42.837Z,100406.38
2023-08-08T10:09:11.421Z,100404.78
2023-08-08T10:11:40.014Z,100414.81
2023-08-08T10:14:32.267Z,100413.41
2023-08-08T10:17:05.266Z,100409.53
2023-08-08T10:19:34.970Z,100404.03
2023-08-08T10:22:06.715Z,100409.63
2023-08-08T10:24:37.278Z,100415.38
2023-08-08T10:27:06.571Z,100416.47
2023-08-08T10:29:35.994Z,100425.19
2023-08-08T10:32:08.620Z,100420.34
2023-08-08T10:34:41.674Z,100423.34
2023-08-08T10:37:12.725Z,100412.63
2023-08-08T10:39:52.990Z,100415.94
2023-08-08T10:42:24.280Z,100413.88
2023-08-08T10:44:54.645Z,100407.19
2023-08-08T10:47:28.329Z,100414.38
2023-08-08T10:50:01.824Z,100423.66
2023-08-08T10:52:31.332Z,100425.75
2023-08-08T10:55:00.170Z,100418.72
2023-08-08T10:57:29.422Z,100427.06
2023-08-08T10:59:57.970Z,100415.56
2023-08-08T11:02:28.137Z,100427.78
2023-08-08T11:04:58.222Z,100432.09
2023-08-08T11:07:29.840Z,100427.97
2023-08-08T11:10:05.521Z,100441.34
2023-08-08T11:12:34.219Z,100429.06
2023-08-08T11:15:03.030Z,100427.44
2023-08-08T11:17:34.320Z,100416.03
2023-08-08T11:20:17.170Z,100413.91
2023-08-08T11:22:45.871Z,100413.63
2023-08-08T11:25:16.854Z,100415.72
2023-08-08T11:27:51.338Z,100410.78
2023-08-08T11:30:20.549Z,100397.38
2023-08-08T11:35:25.558Z,100417.47
2023-08-08T11:37:55.930Z,100415.78
2023-08-08T11:40:25.867Z,100415.19
2023-08-08T11:42:55.590Z,100418.88
2023-08-08T11:45:24.648Z,100427.22
2023-08-08T11:47:56.076Z,100417.00
2023-08-08T11:50:28.413Z,100417.09
2023-08-08T11:52:57.935Z,100412.31
2023-08-08T11:55:30.451Z,100410.75
2023-08-08T11:58:00.696Z,100404.63
2023-08-08T12:00:31.363Z,100403.44
2023-08-08T12:03:05.351Z,100396.06
2023-08-08T12:05:39.688Z,100391.19
2023-08-08T12:08:10.231Z,100377.75
2023-08-08T12:10:41.237Z,100389.63
2023-08-08T12:13:12.950Z,100378.47
2023-08-08T12:15:50.189Z,100376.97
2023-08-08T12:18:21.625Z,100365.94
2023-08-08T12:20:50.164Z,100360.69
2023-08-08T12:23:18.796Z,100369.63
2023-08-08T12:25:48.450Z,100375.22
2023-08-08T12:28:16.992Z,100369.44
2023-08-08T12:30:45.697Z,100367.56
2023-08-08T12:33:14.385Z,100363.59
2023-08-08T12:35:44.373Z,100374.41
2023-08-08T12:38:12.973Z,100381.78
2023-08-08T12:40:44.332Z,100372.00
2023-08-08T12:43:18.100Z,100368.38
2023-08-08T12:45:47.113Z,100367.84
2023-08-08T12:48:15.867Z,100378.78
2023-08-08T12:50:45.813Z,100377.41
2023-08-08T12:53:14.709Z,100382.44
2023-08-08T12:55:43.207Z,100385.63
2023-08-08T12:58:11.758Z,100372.19
2023-08-08T13:00:41.071Z,100376.41
2023-08-08T13:03:10.609Z,100369.91
2023-08-08T13:05:40.026Z,100372.59
2023-08-08T13:08:10.364Z,100375.53
2023-08-08T13:10:39.474Z,100368.97
2023-08-08T13:13:08.422Z,100380.16
2023-08-08T13:15:37.598Z,100374.81
2023-08-08T13:18:06.931Z,100371.47
2023-08-08T13:20:37.829Z,100375.28
2023-08-08T13:23:06.695Z,100374.75
2023-08-08T13:25:36.536Z,100378.72
2023-08-08T13:28:05.391Z,100380.78
2023-08-08T13:30:35.002Z,100379.06
2023-08-08T13:33:03.770Z,100382.34
2023-08-08T13:35:32.371Z,100379.84
2023-08-08T13:38:01.005Z,100397.31
2023-08-08T13:40:29.614Z,100393.13
2023-08-08T13:42:59.764Z,100392.88
2023-08-08T13:45:28.405Z,100393.34
2023-08-08T13:47:56.943Z,100389.44
2023-08-08T13:50:27.372Z,100392.66
2023-08-08T13:52:59.540Z,100391.19
2023-08-08T13:55:28.935Z,100391.31
2023-08-08T13:57:59.414Z,100392.59
2023-08-08T14:00:28.657Z,100386.66
2023-08-08T14:03:00.897Z,100391.59
2023-08-08T14:05:29.988Z,100391.59
2023-08-08T14:08:05.586Z,100382.78
2023-08-08T14:10:35.899Z,100393.97
2023-08-08T14:13:10.080Z,100393.81
2023-08-08T14:15:40.629Z,100382.88
2023-08-08T14:18:09.760Z,100375.00
2023-08-08T14:20:42.217Z,100389.41
2023-08-08T14:23:11.826Z,100392.22
2023-08-08T14:25:40.493Z,100401.38
2023-08-08T14:28:10.522Z,100398.25
2023-08-08T14:30:39.098Z,100407.31
2023-08-08T14:33:07.949Z,100401.13
2023-08-08T14:35:37.431Z,100402.72
2023-08-08T14:38:07.251Z,100406.28
2023-08-08T14:40:43.973Z,100407.34
2023-08-08T14:43:14.906Z,100394.63
2023-08-08T14:45:43.745Z,100401.00
2023-08-08T14:48:17.658Z,100406.94
2023-08-08T14:50:46.524Z,100407.09
2023-08-08T14:53:17.505Z,100412.31
2023-08-08T14:55:46.976Z,100414.41
2023-08-08T14:58:19.561Z,100405.66
2023-08-08T15:00:49.290Z,100399.44
2023-08-08T15:03:19.888Z,100415.69
2023-08-08T15:05:49.865Z,100415.50
2023-08-08T15:08:19.182Z,100411.41
2023-08-08T15:10:51.468Z,100420.94
2023-08-08T15:13:22.658Z,100422.53
2023-08-08T15:15:51.249Z,100410.59
2023-08-08T15:18:19.751Z,100416.91
2023-08-08T15:20:48.374Z,100422.22
2023-08-08T15:23:17.293Z,100420.06
2023-08-08T15:26:01.696Z,100420.22
2023-08-08T15:28:32.486Z,100411.41
2023-08-08T15:31:00.998Z,100403.41
2023-08-08T15:33:32.794Z,100401.88
2023-08-08T15:38:32.115Z,100402.34
2023-08-08T15:41:01.647Z,100407.03
2023-08-08T15:43:31.309Z,100404.47
2023-08-08T15:46:02.830Z,100397.50
2023-08-08T15:48:32.395Z,100397.03
2023-08-08T15:51:01.326Z,100404.09
2023-08-08T15:53:31.214Z,100397.97
2023-08-08T15:56:00.179Z,100391.19
2023-08-08T15:58:32.783Z,100402.84
2023-08-08T16:01:04.621Z,100404.09
2023-08-08T16:03:38.762Z,100409.91
2023-08-08T16:06:09.257Z,100408.72
2023-08-08T16:08:39.012Z,100409.06
2023-08-08T16:11:11.222Z,100415.81
2023-08-08T16:13:42.113Z,100422.78
2023-08-08T16:16:12.514Z,100413.06
2023-08-08T16:18:42.618Z,100416.41
2023-08-08T16:21:16.164Z,100417.84
2023-08-08T16:23:50.720Z,100425.91
2023-08-08T16:26:22.508Z,100423.91
2023-08-08T16:28:54.768Z,100414.78
2023-08-08T16:31:35.836Z,100416.06
2023-08-08T16:34:18.408Z,100413.34
2023-08-08T16:36:49.661Z,100405.34
2023-08-08T16:39:20.260Z,100417.50
2023-08-08T16:41:51.255Z,100415.19
2023-08-08T16:44:22.166Z,100415.50
2023-08-08T16:46:59.462Z,100414.97
2023-08-08T16:49:35.252Z,100418.38
2023-08-08T16:52:10.932Z,100411.94
2023-08-08T16:54:41.381Z,100412.63
2023-08-08T16:57:18.322Z,100417.09
2023-08-08T16:59:48.299Z,100417.53
2023-08-08T17:02:19.652Z,100412.38
2023-08-08T17:04:54.506Z,100415.72
2023-08-08T17:07:26.986Z,100413.16
2023-08-08T17:09:57.917Z,100412.31
2023-08-08T17:12:27.946Z,100414.44
2023-08-08T17:15:00.968Z,100409.91
2023-08-08T17:17:35.554Z,100409.22
2023-08-08T17:20:10.935Z,100409.16
2023-08-08T17:22:43.414Z,100405.78
2023-08-08T17:25:16.618Z,100411.31
2023-08-08T17:27:51.707Z,100405.78
2023-08-08T17:30:23.370Z,100398.81
2023-08-08T17:33:00.090Z,100404.00
2023-08-08T17:35:31.094Z,100396.75
2023-08-08T17:37:59.680Z,100398.63
2023-08-08T17:40:32.204Z,100399.78
2023-08-08T17:43:05.432Z,100399.34
2023-08-08T17:45:34.984Z,100409.63
2023-08-08T17:48:13.018Z,100396.94
2023-08-08T17:50:43.609Z,100398.91
2023-08-08T17:53:14.633Z,100395.22
2023-08-08T17:55:44.237Z,100395.44
2023-08-08T17:58:13.108Z,100395.56
2023-08-08T18:00:41.666Z,100393.75
2023-08-08T18:03:11.637Z,100387.53
2023-08-08T18:05:40.853Z,100386.88
2023-08-08T18:08:09.431Z,100389.53
2023-08-08T18:10:38.157Z,100384.00
2023-08-08T18:13:06.843Z,100398.47
2023-08-08T18:15:35.787Z,100401.59
2023-08-08T18:18:05.982Z,100396.31
2023-08-08T18:20:36.223Z,100397.41
2023-08-08T18:23:05.480Z,100402.75
2023-08-08T18:25:33.987Z,100402.47
2023-08-08T18:28:04.152Z,100396.56
2023-08-08T18:30:32.631Z,100402.44
2023-08-08T18:33:01.197Z,100401.78
2023-08-08T18:35:29.775Z,100392.13
2023-08-08T18:38:00.490Z,100393.81
2023-08-08T18:40:29.354Z,100389.44
2023-08-08T18:42:58.001Z,100389.22
2023-08-08T18:45:31.025Z,100393.38
2023-08-08T18:48:03.083Z,100391.03
2023-08-08T18:50:33.616Z,100391.84
2023-08-08T18:53:07.551Z,100398.41
2023-08-08T18:55:38.263Z,100400.63
2023-08-08T18:58:12.057Z,100408.81
2023-08-08T19:00:42.933Z,100406.50
2023-08-08T19:03:23.677Z,100405.25
2023-08-08T19:05:53.795Z,100399.13
2023-08-08T19:08:27.740Z,100400.06
2023-08-08T19:11:03.922Z,100410.06
2023-08-08T19:13:36.204Z,100415.84
2023-08-08T19:16:07.288Z,100413.31
2023-08-08T19:18:37.930Z,100411.00
2023-08-08T19:21:07.418Z,100407.28
2023-08-08T19:23:42.786Z,100402.13
2023-08-08T19:26:11.954Z,100412.22
2023-08-08T19:28:42.689Z,100407.97
2023-08-08T19:31:14.192Z,100412.41
2023-08-08T19:33:59.692Z,100414.53
2023-08-08T19:36:35.339Z,100420.69
2023-08-08T19:39:07.914Z,100412.19
2023-08-08T19:41:38.153Z,100403.09
2023-08-08T19:44:10.161Z,100402.97
2023-08-08T19:46:41.676Z,100403.09
2023-08-08T19:49:12.393Z,100414.50
2023-08-08T19:51:46.029Z,100410.03
2023-08-08T19:54:20.529Z,100419.66
2023-08-08T19:56:50.069Z,100431.16
2023-08-08T19:59:18.670Z,100431.75
2023-08-08T20:01:52.667Z,100446.47
2023-08-08T20:04:22.605Z,100446.63
2023-08-08T20:06:51.943Z,100444.84
2023-08-08T20:09:23.154Z,100436.41
2023-08-08T20:11:51.925Z,100429.59
2023-08-08T20:14:20.437Z,100423.22
2023-08-08T20:16:49.783Z,100421.34
2023-08-08T20:19:19.308Z,100411.03
2023-08-08T20:21:48.110Z,100413.69
2023-08-08T20:24:17.461Z,100417.41
2023-08-08T20:26:49.455Z,100421.28
2023-08-08T20:29:19.686Z,100415.84
2023-08-08T20:31:49.620Z,100428.78
2023-08-08T20:34:43.737Z,100422.66
2023-08-08T20:37:16.775Z,100417.16
2023-08-08T20:39:48.769Z,100415.53
2023-08-08T20:42:20.547Z,100417.47
2023-08-08T20:44:53.704Z,100415.72
2023-08-08T20:47:23.972Z,100421.25
2023-08-08T20:49:54.846Z,100424.16
2023-08-08T20:52:25.004Z,100421.59
2023-08-08T20:54:54.292Z,100427.25
2023-08-08T20:57:25.686Z,100413.50
2023-08-08T20:59:55.876Z,100411.22
2023-08-08T21:02:28.203Z,100412.53
2023-08-08T21:05:00.530Z,100412.53
2023-08-08T21:07:34.465Z,100403.47
2023-08-08T21:10:05.446Z,100403.31
2023-08-08T21:12:40.190Z,100402.66
2023-08-08T21:15:10.538Z,100403.66
2023-08-08T21:17:44.383Z,100410.78
2023-08-08T21:20:14.446Z,100404.91
2023-08-08T21:22:51.624Z,100418.84
2023-08-08T21:25:30.285Z,100407.22
2023-08-08T21:28:02.177Z,100403.97
2023-08-08T21:30:36.786Z,100394.44
2023-08-08T21:33:06.991Z,100393.78
2023-08-08T21:35:39.796Z,100382.97
2023-08-08T21:38:11.732Z,100381.19
2023-08-08T21:40:42.154Z,100386.03
2023-08-08T21:46:01.760Z,100374.72
2023-08-08T21:48:30.884Z,100376.81
2023-08-08T21:51:01.215Z,100366.78
2023-08-08T21:53:30.251Z,100351.75
2023-08-08T21:55:59.109Z,100339.00
2023-08-08T21:58:27.690Z,100345.44
2023-08-08T22:00:56.335Z,100341.56
2023-08-08T22:03:26.922Z,100344.47
2023-08-08T22:05:55.554Z,100338.81
2023-08-08T22:08:24.099Z,100337.34
2023-08-08T22:10:52.814Z,100337.53
2023-08-08T22:13:21.981Z,100329.28
2023-08-08T22:15:50.780Z,100333.97
2023-08-08T22:18:20.947Z,100329.59
2023-08-08T22:20:51.187Z,100329.91
2023-08-08T22:23:21.409Z,100326.03
2023-08-08T22:25:51.087Z,100327.81
2023-08-08T22:28:21.099Z,100325.56
2023-08-08T22:30:53.009Z,100333.00
2023-08-08T22:33:22.505Z,100329.28
2023-08-08T22:35:52.440Z,100316.81
2023-08-08T22:38:20.966Z,100314.41
2023-08-08T22:40:49.473Z,100315.06
2023-08-08T22:43:18.019Z,100316.34
2023-08-08T22:45:46.739Z,100313.91
2023-08-08T22:48:15.414Z,100313.44
2023-08-08T22:50:45.288Z,100309.56
2023-08-08T22:53:15.362Z,100309.38
2023-08-08T22:55:43.918Z,100306.31
2023-08-08T22:58:14.108Z,100303.56
2023-08-08T23:00:42.795Z,100301.31
2023-08-08T23:03:12.062Z,100301.78
2023-08-08T23:06:06.184Z,100295.66
2023-08-08T23:08:36.273Z,100303.09
2023-08-08T23:11:05.059Z,100303.59
2023-08-08T23:13:33.640Z,100300.22
2023-08-08T23:16:02.262Z,100302.31
2023-08-08T23:18:30.862Z,100297.16
2023-08-08T23:20:59.521Z,100303.59
2023-08-08T23:23:47.707Z,100301.34
2023-08-08T23:26:16.717Z,100313.59
2023-08-08T23:28:45.466Z,100311.03
2023-08-08T23:31:14.181Z,100303.44
2023-08-08T23:33:44.692Z,100290.84
2023-08-08T23:36:13.447Z,100291.00
2023-08-08T23:38:43.009Z,100294.06
2023-08-08T23:41:13.010Z,100291.50
2023-08-08T23:43:44.149Z,100289.22
2023-08-08T23:46:13.441Z,100303.44
2023-08-08T23:48:42.634Z,100305.06
2023-08-08T23:51:11.139Z,100304.75
2023-08-08T23:53:39.696Z,100306.53
2023-08-08T23:56:08.596Z,100319.94
2023-08-08T23:58:38.623Z,100323.81
